AirNav   Pilot Hours Calculator
 
 1634 users online  

0R1 Atmore Municipal Airport
Atmore, Alabama, USA

GOING TO ATMORE?


FAA INFORMATION EFFECTIVE 14 JULY 2022

Location

FAA Identifier: 0R1
Lat/Long: 31-00-58.1000N 087-26-48.3000W
31-00.968333N 087-26.805000W
31.0161389,-87.4467500
(estimated)
Elevation: 286 ft. / 87.2 m (surveyed)
Variation: 03W (2020)
From city: 3 miles E of ATMORE, AL
Time zone: UTC -5 (UTC -6 during Standard Time)
Zip code: 36502

Airport Operations

Airport use: Open to the public
Activation date: 10/1961
Control tower: no
ARTCC: JACKSONVILLE CENTER
FSS: ANNISTON FLIGHT SERVICE STATION
NOTAMs facility: ANB (NOTAM-D service available)
Attendance: MON-FRI 0700-1700
WKENDS ON CALL.
Wind indicator: lighted
Segmented circle: yes
Lights: ACTVT PAPI RWYS 18 & 36; MIRL RWY 18/36 - CTAF.
Beacon: white-green (lighted land airport)
Operates sunset to sunrise.

Airport Communications

CTAF/UNICOM: 122.8
PENSACOLA APPROACH: 127.35
PENSACOLA DEPARTURE: 127.35
WX AWOS-3PT at 12J (20 nm E): 119.325 (251-809-2987)

Nearby radio navigation aids

VOR radial/distance  VOR name  Freq  Var
MVCr186/27.0MONROEVILLE VORTAC116.8004E
NUNr349/(33.1)SAUFLEY VOR108.8001E
BFMr048/39.6BROOKLEY VORTAC116.3504E

 
NDB name  Hdg/Dist  Freq  Var  ID
PICKENS340/37.432602WPKZ .--. -.- --..

Airport Services

Fuel available: 100LL
Parking: tiedowns
Airframe service: MAJOR
Powerplant service: MAJOR
Bottled oxygen: NONE
Bulk oxygen: NONE

Runway Information

Runway 18/36

Dimensions: 5001 x 80 ft. / 1524 x 24 m
Surface: asphalt, in good condition
Weight bearing capacity: 
Single wheel: 16.0
Runway edge lights: medium intensity
RUNWAY 18  RUNWAY 36
Latitude: 31-01.381432N31-00.556477N
Longitude: 087-26.806668W087-26.803960W
Elevation: 283.2 ft.279.9 ft.
Traffic pattern: leftleft
Runway heading: 183 magnetic, 180 true003 magnetic, 360 true
Markings: nonprecision, in fair conditionnonprecision, in fair condition
Visual slope indicator: 2-light PAPI on left (3.00 degrees glide path)2-light PAPI on left (3.00 degrees glide path)
Touchdown point: yes, no lightsyes, no lights
Obstructions: 35 ft. rr, 906 ft. from runway, 20:1 slope to clear
APCH RATIO 33:1 TO DSPLCD THR.
26 ft. brush, 247 ft. from runway, 69 ft. right of centerline, 1:1 slope to clear
APCH RATIO 32:1 TO DSPLCD THR.

Airport Ownership and Management from official FAA records

Ownership: Publicly-owned
Owner: TOWN OF ATMORE
PO DRAWER 1297
ATMORE, AL 36504
Phone 251-368-2253
Manager: FREDDIE MCCALL
15 BEACON LN
ATMORE, AL 36502
Phone 251-368-2004
ALSO 251-538-0546

Airport Operational Statistics

Aircraft based on the field: 18
Single engine airplanes: 14
Multi engine airplanes: 2
Helicopters: 1
Gliders airplanes: 1
    
Aircraft operations: avg 103/week *
84% transient general aviation
16% local general aviation
* for 12-month period ending 01 February 2022

Additional Remarks

FOR CD CTC PENSACOLA APCH AT 850-266-6884 OR 850-266-6885.

Instrument Procedures

NOTE: All procedures below are presented as PDF files. If you need a reader for these files, you should download the free Adobe Reader.

NOT FOR NAVIGATION. Please procure official charts for flight.
FAA instrument procedures published for use from 14 July 2022 at 0901Z to 11 August 2022 at 0900z.

 
IAPs - Instrument Approach Procedures
RNAV (GPS) RWY 18   download (195KB)
RNAV (GPS) RWY 36   download (199KB)
NOTE: Special Take-Off Minimums/Departure Procedures apply   download (317KB)

Other nearby airports with instrument procedures:

12J - Brewton Municipal Airport (20 nm E)
1R8 - Bay Minette Municipal Airport (21 nm SW)
KMVC - Monroe County Aeroplex Airport (27 nm N)
KNSE - Whiting Field Naval Air Station North (28 nm SE)
KNDZ - Whiting Field Naval Air Station South (29 nm SE)
 
Loc | Ops | Rwys | IFR | FBO | Links
Com | Nav | Svcs | Stats | Notes
Area around 0R1 (Atmore Municipal Airport)
 
Road maps at: MapQuest Bing Google
 
Aerial photo
No photo
 
Sectional chart

 
Airport distance calculator
Flying to Atmore Municipal Airport? Find the distance to fly.

From to 0R1

Sunrise and sunset
Times for 09-Aug-2022
 Local
(UTC-5)
 Zulu
(UTC)
Morning civil twilight05:4710:47
Sunrise06:1311:13
Sunset19:3800:38
Evening civil twilight20:0301:03

Current date and time
Zulu (UTC)  09-Aug-2022 21:04:21
Local (UTC-5)  09-Aug-2022 16:04:21
 
METAR
KNSE 
29nm SE 
091956Z 23006KT 10SM SCT035 SCT100 BKN150 BKN250 27/22 A3008 RMK SLP172 OCNL LTGICCG DSNT N-E CB DSNT N-E T1 SET T02720222
KNDZ 
29nm SE 
092056Z VRB06KT 10SM FEW100 BKN180 BKN250 28/23 A3006 RMK AO2 SLP163 T1 SET 6//// T02830233 58022 $
KGZH 
31nm NE 
091953Z AUTO 00000KT 10SM FEW055 SCT070 31/21 A3008 RMK AO2 LTG DSNT S SLP182 T03060206
KPNS 
35nm SE 
092053Z 00000KT 10SM CLR 26/24 A3006 RMK AO2 RAE16 SLP180 P0000 60006 T02610239 58023
KBFM 
40nm SW 
092053Z 14008KT 10SM FEW020 29/22 A3006 RMK AO2 SLP180 60002 T02890222 58029
KCQF 
40nm SW 
092055Z AUTO RMK AO2 PWINO PNO
KNPA 
41nm S 
091956Z 10SM -RA FEW008 SCT065 BKN080 BKN130 OVC250 24/22 A3008 RMK RAE07B57 SLP186 T2 SET P0008 T02390222
KJKA 
45nm S 
092055Z VRB03KT 10SM FEW006 SCT050 25/24 A3006
KMOB 
46nm SW 
092056Z 11008KT 10SM FEW045 SCT100 BKN250 31/22 A3006 RMK AO2 SLP174 CB DSNT N AND SE T03060217 57031
TAF
KNSE 
29nm SE 
0915/1015 VRB05KT 9999 SCT020 SCT050 BKN130 BKN250 QNH3011INS FM091700 14006KT 9999 VCSH SCT035CB SCT100 BKN150 BKN250 QNH3006INS TEMPO 0918/0922 VRB15G25KT 4800 TSRA SCT025CB BKN060 BKN100 FM092300 11004KT 9999 FEW030 SCT080 SCT120 BKN250 QNH3007INS FM100500 VRB03KT 9999 VCSH FEW020 SCT150 BKN200 QNH3008INS TEMPO 1006/1010 6000 -SHRA BR SCT010 BKN035 FM101100 08004KT 9999 VCSH SCT020 SCT040 BKN120 BKN250 QNH3010INS T32/0918Z T23/1009Z FN20071
KPNS 
35nm SE 
091739Z 0918/1018 14007KT P6SM FEW028 FEW080 TEMPO 0919/0921 4SM TSRA BR BKN023CB OVC035 FM092100 16007KT P6SM VCTS SCT020 BKN035CB OVC060 FM092300 16008KT 6SM -SHRA BR BKN060 PROB30 1009/1014 4SM TSRA BR BKN023CB
NOTAMs
Click for the latest NOTAMs
NOTAMs are issued by the DoD/FAA and will open in a separate window not controlled by AirNav.

 

 
 

FBO, Fuel Providers, and Aircraft Ground Support

  
 Business Name 
 
 Contact 
 
 Services / Description 
 
Fuel Prices
 
Comments
  
Aviation Specialists LLC 251-368-2004
no information available

If you are affiliated with Aviation Specialists LLC and would like to show here your services, contact info, web link, logo, and more, click here
100LL
SS $7.35 
 Updated 01-Aug-2022
 
   1 read write
SS=Self service
Update Fuel Prices
 

Would you like to see your business listed on this page?

 If your business provides an interesting product or service to pilots, flight crews, aircraft, or users of the Atmore Municipal Airport, you should consider listing it here.  To start the listing process, click on the button below
 
Add a business
 

Other Pages about Atmore Municipal Airport

Update a link
 
Copyright © AirNav, LLC. All rights reserved. Privacy Policy  Contact